createdAt,value
2019-03-05T00:02:02.809Z,3.70
2019-03-05T00:06:07.794Z,3.70
2019-03-05T00:10:15.026Z,3.60
2019-03-05T00:14:21.674Z,3.60
2019-03-05T00:18:26.753Z,3.60
2019-03-05T00:22:31.743Z,3.70
2019-03-05T00:26:36.786Z,3.70
2019-03-05T00:30:45.527Z,3.60
2019-03-05T00:35:02.586Z,3.60
2019-03-05T00:39:14.565Z,3.50
2019-03-05T00:43:22.654Z,3.50
2019-03-05T00:47:42.952Z,3.50
2019-03-05T00:51:56.979Z,3.50
2019-03-05T00:56:13.906Z,3.50
2019-03-05T01:00:22.146Z,3.50
2019-03-05T01:04:33.104Z,3.50
2019-03-05T01:08:38.164Z,3.40
2019-03-05T01:12:43.434Z,3.50
2019-03-05T01:16:48.804Z,3.40
2019-03-05T01:20:54.093Z,3.40
2019-03-05T01:24:59.082Z,3.40
2019-03-05T01:29:04.437Z,3.40
2019-03-05T01:33:13.970Z,3.40
2019-03-05T01:37:18.898Z,3.50
2019-03-05T01:41:24.042Z,3.60
2019-03-05T01:45:29.097Z,3.80
2019-03-05T01:49:34.096Z,3.80
2019-03-05T01:53:39.178Z,3.90
2019-03-05T01:57:44.177Z,4.20
2019-03-05T02:01:49.303Z,4.30
2019-03-05T02:05:54.541Z,4.40
2019-03-05T02:10:00.606Z,4.50
2019-03-05T02:14:06.876Z,4.60
2019-03-05T02:18:14.986Z,4.70
2019-03-05T02:22:29.137Z,4.80
2019-03-05T02:26:49.438Z,4.80
2019-03-05T02:30:57.479Z,4.80
2019-03-05T02:35:08.122Z,4.70
2019-03-05T02:39:34.330Z,4.70
2019-03-05T02:43:48.070Z,4.50
2019-03-05T02:48:17.050Z,4.40
2019-03-05T02:52:43.451Z,4.30
2019-03-05T02:57:00.203Z,4.30
2019-03-05T03:01:22.284Z,4.30
2019-03-05T03:05:28.902Z,4.30
2019-03-05T03:09:36.976Z,4.30
2019-03-05T03:13:41.960Z,4.30
2019-03-05T03:17:47.388Z,4.20
2019-03-05T03:21:52.440Z,4.10
2019-03-05T03:25:57.486Z,4.10
2019-03-05T03:30:02.450Z,4.00
2019-03-05T03:34:08.013Z,3.90
2019-03-05T03:38:13.071Z,3.90
2019-03-05T03:42:18.024Z,3.90
2019-03-05T03:46:23.071Z,3.90
2019-03-05T03:50:28.114Z,3.90
2019-03-05T03:54:33.132Z,3.80
2019-03-05T03:58:38.133Z,3.80
2019-03-05T04:02:43.379Z,3.80
2019-03-05T04:06:48.401Z,3.90
2019-03-05T04:10:53.395Z,4.00
2019-03-05T04:14:58.389Z,4.10
2019-03-05T04:19:05.043Z,4.20
2019-03-05T04:23:10.025Z,4.20
2019-03-05T04:27:15.025Z,4.20
2019-03-05T04:31:20.013Z,4.10
2019-03-05T04:35:24.974Z,4.00
2019-03-05T04:39:29.999Z,3.90
2019-03-05T04:43:35.029Z,3.80
2019-03-05T04:47:40.058Z,3.70
2019-03-05T04:51:50.490Z,3.60
2019-03-05T04:55:55.517Z,3.50
2019-03-05T05:00:00.534Z,3.50
2019-03-05T05:04:05.595Z,3.50
2019-03-05T05:08:10.614Z,3.60
2019-03-05T05:12:15.652Z,3.60
2019-03-05T05:16:20.623Z,3.60
2019-03-05T05:20:25.624Z,3.60
2019-03-05T05:24:30.611Z,3.70
2019-03-05T05:28:35.629Z,3.70
2019-03-05T05:32:40.706Z,3.70
2019-03-05T05:36:45.697Z,3.70
2019-03-05T05:40:50.691Z,3.80
2019-03-05T05:44:55.701Z,3.90
2019-03-05T05:49:00.725Z,4.10
2019-03-05T05:53:05.746Z,4.20
2019-03-05T05:57:10.735Z,4.40
2019-03-05T06:01:15.808Z,4.40
2019-03-05T06:05:20.862Z,4.50
2019-03-05T06:09:25.843Z,4.70
2019-03-05T06:13:30.874Z,4.90
2019-03-05T06:17:35.878Z,4.90
2019-03-05T06:21:40.923Z,4.90
2019-03-05T06:25:45.961Z,4.90
2019-03-05T06:29:50.967Z,4.80
2019-03-05T06:33:55.969Z,4.80
2019-03-05T06:38:00.942Z,4.80
2019-03-05T06:42:05.937Z,4.70
2019-03-05T06:46:10.941Z,4.70
2019-03-05T06:50:18.341Z,4.70
2019-03-05T06:54:23.436Z,4.70
2019-03-05T06:58:28.403Z,4.70
2019-03-05T07:02:33.398Z,4.60
2019-03-05T07:06:49.370Z,4.30
2019-03-05T07:10:58.505Z,4.20
2019-03-05T07:15:39.577Z,4.30
2019-03-05T07:20:14.550Z,4.60
2019-03-05T07:24:28.183Z,4.90
2019-03-05T07:28:33.145Z,5.10
2019-03-05T07:32:38.162Z,5.20
2019-03-05T07:36:45.200Z,5.30
2019-03-05T07:40:49.867Z,5.60
2019-03-05T07:44:54.868Z,6.50
2019-03-05T07:49:00.106Z,7.30
2019-03-05T07:53:05.183Z,7.00
2019-03-05T07:57:10.445Z,6.70
2019-03-05T08:01:22.320Z,6.80
2019-03-05T08:05:24.305Z,6.90
2019-03-05T08:09:30.815Z,7.10
2019-03-05T08:13:39.154Z,8.00
2019-03-05T08:17:46.936Z,8.30
2019-03-05T08:21:51.293Z,8.50
2019-03-05T08:25:57.109Z,8.10
2019-03-05T08:30:13.504Z,7.70
2019-03-05T08:34:09.712Z,7.50
2019-03-05T08:38:15.134Z,7.10
2019-03-05T08:42:20.389Z,7.20
2019-03-05T08:46:25.667Z,7.50
2019-03-05T08:50:30.917Z,7.70
2019-03-05T08:54:36.193Z,7.80
2019-03-05T08:58:41.467Z,7.60
2019-03-05T09:02:48.905Z,7.90
2019-03-05T09:06:53.695Z,8.20
2019-03-05T09:10:59.030Z,8.30
2019-03-05T09:15:07.349Z,8.00
2019-03-05T09:19:12.686Z,7.80
2019-03-05T09:23:18.026Z,7.40
2019-03-05T09:27:23.441Z,7.10
2019-03-05T09:31:28.764Z,6.90
2019-03-05T09:35:34.333Z,6.90
2019-03-05T09:39:39.402Z,6.90
2019-03-05T09:43:44.673Z,7.00
2019-03-05T09:47:49.992Z,7.10
2019-03-05T09:51:55.344Z,7.10
2019-03-05T09:56:00.553Z,7.20
2019-03-05T10:00:12.038Z,7.50
2019-03-05T10:04:17.469Z,8.60
2019-03-05T10:08:32.051Z,9.60
2019-03-05T10:12:30.287Z,9.50
2019-03-05T10:16:35.694Z,10.30
2019-03-05T10:20:41.101Z,10.20
2019-03-05T10:24:46.466Z,9.70
2019-03-05T10:28:52.842Z,9.00
2019-03-05T10:33:00.985Z,8.40
2019-03-05T10:37:14.461Z,8.10
2019-03-05T10:41:14.158Z,7.80
2019-03-05T10:45:20.098Z,7.60
2019-03-05T10:49:25.598Z,7.70
2019-03-05T10:53:31.965Z,8.10
2019-03-05T10:57:37.300Z,8.20
2019-03-05T11:01:42.747Z,8.20
2019-03-05T11:05:48.574Z,8.10
2019-03-05T11:09:54.378Z,8.00
2019-03-05T11:13:59.649Z,8.00
2019-03-05T11:18:10.485Z,7.80
2019-03-05T11:22:16.123Z,7.70
2019-03-05T11:26:21.457Z,7.70
2019-03-05T11:30:36.034Z,7.70
2019-03-05T11:34:36.695Z,7.20
2019-03-05T11:38:41.972Z,6.50
2019-03-05T11:42:47.480Z,6.40
2019-03-05T11:46:52.809Z,6.40
2019-03-05T11:50:57.979Z,6.30
2019-03-05T11:55:03.057Z,6.20
2019-03-05T11:59:09.116Z,6.10
2019-03-05T12:03:14.153Z,6.00
2019-03-05T12:07:19.158Z,5.90
2019-03-05T12:11:24.225Z,5.80
2019-03-05T12:15:31.049Z,5.30
2019-03-05T12:19:36.045Z,4.30
2019-03-05T12:23:46.678Z,3.90
2019-03-05T12:27:50.191Z,4.00
2019-03-05T12:31:55.238Z,4.40
2019-03-05T12:36:00.307Z,4.60
2019-03-05T12:40:07.850Z,4.70
2019-03-05T12:44:12.842Z,4.60
2019-03-05T12:48:17.838Z,4.50
2019-03-05T12:52:22.973Z,4.50
2019-03-05T12:56:27.959Z,4.50
2019-03-05T13:00:35.762Z,4.50
2019-03-05T13:04:40.973Z,4.50
2019-03-05T13:08:45.952Z,4.70
2019-03-05T13:12:51.208Z,4.90
2019-03-05T13:16:56.272Z,5.00
2019-03-05T13:21:03.686Z,5.20
2019-03-05T13:25:11.041Z,5.30
2019-03-05T13:29:19.370Z,5.40
2019-03-05T13:33:22.705Z,5.50
2019-03-05T13:37:28.550Z,5.80
2019-03-05T13:41:34.381Z,6.10
2019-03-05T13:45:43.811Z,6.40
2019-03-05T13:50:04.404Z,6.70
2019-03-05T13:54:30.349Z,6.90
2019-03-05T13:59:12.229Z,7.10
2019-03-05T14:03:23.208Z,7.10
2019-03-05T14:07:40.459Z,6.70
2019-03-05T14:11:47.782Z,6.50
2019-03-05T14:15:52.872Z,6.40
2019-03-05T14:19:57.852Z,6.40
2019-03-05T14:24:02.847Z,6.60
2019-03-05T14:28:08.117Z,6.70
2019-03-05T14:32:13.554Z,6.90
2019-03-05T14:36:18.555Z,6.90
2019-03-05T14:40:26.432Z,6.60
2019-03-05T14:44:39.816Z,6.40
2019-03-05T14:48:40.406Z,6.40
2019-03-05T14:52:45.702Z,6.40
2019-03-05T14:56:51.991Z,6.30
2019-03-05T15:00:57.430Z,6.10
2019-03-05T15:05:02.383Z,6.00
2019-03-05T15:09:07.472Z,6.10
2019-03-05T15:13:17.324Z,6.20
2019-03-05T15:17:19.218Z,6.30
2019-03-05T15:21:24.228Z,6.40
2019-03-05T15:25:29.157Z,6.20
2019-03-05T15:29:34.163Z,6.20
2019-03-05T15:33:41.092Z,6.40
2019-03-05T15:37:46.329Z,6.60
2019-03-05T15:41:51.694Z,6.80
2019-03-05T15:45:56.945Z,6.70
2019-03-05T15:50:02.276Z,6.50
2019-03-05T15:54:07.781Z,6.50
2019-03-05T15:58:13.046Z,6.40
2019-03-05T16:02:18.141Z,6.40
2019-03-05T16:06:23.097Z,6.30
2019-03-05T16:10:28.106Z,6.20
2019-03-05T16:14:33.864Z,6.10
2019-03-05T16:18:39.406Z,5.90
2019-03-05T16:22:45.259Z,5.00
2019-03-05T16:26:51.207Z,4.30
2019-03-05T16:30:57.937Z,4.10
2019-03-05T16:35:04.570Z,3.90
2019-03-05T16:39:17.284Z,3.60
2019-03-05T16:43:23.977Z,3.30
2019-03-05T16:47:30.605Z,3.20
2019-03-05T16:51:46.515Z,3.00
2019-03-05T16:55:53.284Z,2.80
2019-03-05T17:00:17.171Z,2.60
2019-03-05T17:04:27.312Z,2.60
2019-03-05T17:08:51.404Z,2.50
2019-03-05T17:12:56.873Z,2.40
2019-03-05T17:17:02.502Z,2.40
2019-03-05T17:21:08.762Z,2.40
2019-03-05T17:25:16.738Z,2.40
2019-03-05T17:29:21.802Z,2.50
2019-03-05T17:33:26.880Z,2.40
2019-03-05T17:37:32.017Z,2.40
2019-03-05T17:41:37.482Z,2.40
2019-03-05T17:45:42.740Z,2.60
2019-03-05T17:49:47.721Z,2.80
2019-03-05T17:53:52.881Z,2.80
2019-03-05T17:57:57.991Z,2.90
2019-03-05T18:02:04.625Z,2.90
2019-03-05T18:06:09.874Z,3.00
2019-03-05T18:10:14.938Z,3.00
2019-03-05T18:14:20.190Z,3.00
2019-03-05T18:18:25.335Z,3.00
2019-03-05T18:22:30.479Z,3.00
2019-03-05T18:26:35.526Z,2.90
2019-03-05T18:30:40.683Z,3.00
2019-03-05T18:34:45.677Z,3.00
2019-03-05T18:38:50.760Z,3.00
2019-03-05T18:42:57.869Z,2.90
2019-03-05T18:47:02.901Z,2.90
2019-03-05T18:51:07.978Z,2.90
2019-03-05T18:55:18.342Z,2.80
2019-03-05T18:59:23.538Z,2.80
2019-03-05T19:03:31.137Z,2.90
2019-03-05T19:07:36.361Z,2.90
2019-03-05T19:11:42.140Z,3.00
2019-03-05T19:15:47.218Z,2.90
2019-03-05T19:19:52.202Z,2.70
2019-03-05T19:23:57.585Z,2.50
2019-03-05T19:28:02.565Z,2.40
2019-03-05T19:32:07.553Z,2.30
2019-03-05T19:36:12.626Z,2.30
2019-03-05T19:40:23.270Z,2.30
2019-03-05T19:44:29.067Z,2.30
2019-03-05T19:48:34.942Z,2.40
2019-03-05T19:52:40.019Z,2.60
2019-03-05T19:56:45.096Z,2.70
2019-03-05T20:00:55.665Z,2.80
2019-03-05T20:05:00.850Z,2.70
2019-03-05T20:09:06.462Z,2.50
2019-03-05T20:13:13.142Z,2.40
2019-03-05T20:17:18.302Z,2.40
2019-03-05T20:21:24.262Z,2.30
2019-03-05T20:25:31.234Z,2.30
2019-03-05T20:29:37.272Z,2.20
2019-03-05T20:33:42.298Z,2.10
2019-03-05T20:37:48.544Z,2.10
2019-03-05T20:41:53.979Z,2.00
2019-03-05T20:46:05.370Z,1.90
2019-03-05T20:50:13.424Z,1.80
2019-03-05T20:54:18.838Z,1.70
2019-03-05T20:58:23.963Z,1.70
2019-03-05T21:02:28.986Z,1.60
2019-03-05T21:06:34.064Z,1.60
2019-03-05T21:10:39.117Z,1.80
2019-03-05T21:14:44.397Z,1.90
2019-03-05T21:18:49.464Z,1.90
2019-03-05T21:22:55.510Z,1.90
2019-03-05T21:27:00.593Z,1.90
2019-03-05T21:31:05.670Z,2.00
2019-03-05T21:35:11.946Z,2.10
2019-03-05T21:39:16.939Z,2.20
2019-03-05T21:43:22.313Z,2.00
2019-03-05T21:47:27.391Z,1.90
2019-03-05T21:51:32.374Z,1.90
2019-03-05T21:55:37.435Z,1.80
2019-03-05T21:59:42.453Z,1.70
2019-03-05T22:03:47.458Z,1.70
2019-03-05T22:07:53.952Z,1.70
2019-03-05T22:11:58.945Z,1.70
2019-03-05T22:16:04.262Z,1.60
2019-03-05T22:20:12.130Z,1.70
2019-03-05T22:24:17.190Z,1.80
2019-03-05T22:28:22.190Z,1.80
2019-03-05T22:32:27.489Z,1.70
2019-03-05T22:36:32.462Z,1.70
2019-03-05T22:40:37.527Z,1.80
2019-03-05T22:44:42.509Z,1.90
2019-03-05T22:48:47.512Z,1.90
2019-03-05T22:52:52.586Z,1.90
2019-03-05T22:56:57.582Z,2.00
2019-03-05T23:01:12.779Z,1.90
2019-03-05T23:05:19.903Z,1.80
2019-03-05T23:09:25.929Z,2.00
2019-03-05T23:13:31.222Z,2.00
2019-03-05T23:17:36.410Z,1.90
2019-03-05T23:21:41.925Z,1.80
2019-03-05T23:25:47.176Z,1.70
2019-03-05T23:29:52.505Z,1.50
2019-03-05T23:33:57.581Z,1.40
2019-03-05T23:38:02.582Z,1.20
2019-03-05T23:42:07.666Z,1.40
2019-03-05T23:46:12.735Z,1.40
2019-03-05T23:50:18.398Z,1.30
2019-03-05T23:54:23.408Z,1.40
2019-03-05T23:58:28.403Z,1.40
